createdAt,value
2022-12-28T08:38:15.147Z,98.67
2022-12-28T08:41:51.953Z,98.67
2022-12-28T08:58:41.834Z,98.56
2022-12-28T09:11:51.788Z,98.56
2022-12-28T09:41:51.741Z,97.16
2022-12-28T10:03:41.772Z,95.93
2022-12-28T10:11:51.667Z,95.93
2022-12-28T10:32:41.663Z,94.63
2022-12-28T10:41:51.551Z,94.63
2022-12-28T11:11:51.429Z,92.4
2022-12-28T11:42:10.271Z,90.33
2022-12-28T11:54:41.393Z,89.21
2022-12-28T12:11:51.166Z,89.21
2022-12-28T12:26:41.317Z,93.4
2022-12-28T12:41:51.070Z,93.4
2022-12-28T13:11:50.957Z,94.22
2022-12-28T13:41:50.860Z,92.69
2022-12-28T14:11:50.727Z,92.14
2022-12-28T14:41:50.657Z,92.14
2022-12-28T15:11:50.623Z,91.26
2022-12-28T15:34:40.869Z,89.62
2022-12-28T16:11:54.804Z,86.57
2022-12-28T16:41:50.245Z,85.2
2022-12-28T17:11:50.196Z,83.97
2022-12-28T17:30:40.544Z,83.17
2022-12-28T17:41:50.014Z,83.17
2022-12-28T17:56:40.502Z,86.1
2022-12-28T18:11:50.001Z,86.1
2022-12-28T18:41:49.932Z,89.46
2022-12-28T19:11:49.833Z,91.42
2022-12-28T19:41:49.737Z,93.18
2022-12-28T20:11:49.664Z,95.06
2022-12-28T20:41:49.604Z,95.68
2022-12-28T21:01:40.337Z,95.57
2022-12-28T21:11:49.482Z,95.57
2022-12-28T21:41:49.418Z,94.69
2022-12-28T22:11:49.236Z,95.37
2022-12-28T22:41:49.087Z,95.62
2022-12-28T23:11:48.987Z,96.17
2022-12-28T23:38:39.772Z,97.62
2022-12-28T23:41:48.956Z,97.62
